createdAt,value
2018-01-24T00:00:41.298Z,15.43
2018-01-24T00:03:09.013Z,14.80
2018-01-24T00:05:36.545Z,20.37
2018-01-24T00:08:04.218Z,18.73
2018-01-24T00:10:31.809Z,21.67
2018-01-24T00:12:59.350Z,18.37
2018-01-24T00:15:26.937Z,20.27
2018-01-24T00:17:54.592Z,18.20
2018-01-24T00:20:22.301Z,17.43
2018-01-24T00:22:50.042Z,16.97
2018-01-24T00:25:17.598Z,15.47
2018-01-24T00:27:45.194Z,18.58
2018-01-24T00:30:12.773Z,15.20
2018-01-24T00:32:40.461Z,16.50
2018-01-24T00:35:08.098Z,15.33
2018-01-24T00:37:35.642Z,18.00
2018-01-24T00:40:03.407Z,21.07
2018-01-24T00:42:30.960Z,17.43
2018-01-24T00:44:58.635Z,14.97
2018-01-24T00:47:26.362Z,13.75
2018-01-24T00:49:54.173Z,14.77
2018-01-24T00:52:21.769Z,13.65
2018-01-24T00:54:49.306Z,13.63
2018-01-24T00:57:16.867Z,13.10
2018-01-24T00:59:44.448Z,14.60
2018-01-24T01:02:12.032Z,13.93
2018-01-24T01:04:39.618Z,12.93
2018-01-24T01:07:07.170Z,11.48
2018-01-24T01:09:34.762Z,13.23
2018-01-24T01:12:02.322Z,11.23
2018-01-24T01:14:30.052Z,10.95
2018-01-24T01:16:57.634Z,9.60
2018-01-24T01:19:25.191Z,9.88
2018-01-24T01:21:52.802Z,9.07
2018-01-24T01:24:20.358Z,8.13
2018-01-24T01:26:47.906Z,8.25
2018-01-24T01:29:15.578Z,7.93
2018-01-24T01:31:43.340Z,8.50
2018-01-24T01:34:10.890Z,7.97
2018-01-24T01:36:38.445Z,7.62
2018-01-24T01:39:06.188Z,7.20
2018-01-24T01:41:33.790Z,6.20
2018-01-24T01:44:01.434Z,7.45
2018-01-24T01:46:29.026Z,10.30
2018-01-24T01:48:56.581Z,7.90
2018-01-24T01:51:24.173Z,7.90
2018-01-24T01:53:51.814Z,7.85
2018-01-24T01:56:19.382Z,9.02
2018-01-24T01:58:46.983Z,7.78
2018-01-24T02:01:14.578Z,6.93
2018-01-24T02:03:42.140Z,7.53
2018-01-24T02:06:09.826Z,5.95
2018-01-24T02:08:37.540Z,6.87
2018-01-24T02:11:05.259Z,6.07
2018-01-24T02:13:33.078Z,6.07
2018-01-24T02:16:00.795Z,6.93
2018-01-24T02:18:28.442Z,5.95
2018-01-24T02:20:55.986Z,6.75
2018-01-24T02:23:23.572Z,6.50
2018-01-24T02:25:51.230Z,6.53
2018-01-24T02:28:18.786Z,7.78
2018-01-24T02:30:46.406Z,6.37
2018-01-24T02:33:13.946Z,6.50
2018-01-24T02:35:41.507Z,6.50
2018-01-24T02:38:09.122Z,7.72
2018-01-24T02:40:36.682Z,5.78
2018-01-24T02:43:04.242Z,6.72
2018-01-24T02:45:31.795Z,7.12
2018-01-24T02:47:59.526Z,7.20
2018-01-24T02:50:27.347Z,7.28
2018-01-24T02:52:54.895Z,10.93
2018-01-24T02:55:22.450Z,17.05
2018-01-24T02:57:50.038Z,94.32
2018-01-24T03:00:17.723Z,53.55
2018-01-24T03:02:45.433Z,60.73
2018-01-24T03:05:13.039Z,31.83
2018-01-24T03:07:40.638Z,15.05
2018-01-24T03:10:08.388Z,31.60
2018-01-24T03:12:35.978Z,23.20
2018-01-24T03:15:03.537Z,9.75
2018-01-24T03:17:31.095Z,11.57
2018-01-24T03:19:58.662Z,15.20
2018-01-24T03:22:26.477Z,12.93
2018-01-24T03:24:54.199Z,19.33
2018-01-24T03:27:22.013Z,13.00
2018-01-24T03:29:49.558Z,9.20
2018-01-24T03:32:17.276Z,14.23
2018-01-24T03:34:44.814Z,11.30
2018-01-24T03:37:12.483Z,8.73
2018-01-24T03:39:40.034Z,10.88
2018-01-24T03:42:07.646Z,9.50
2018-01-24T03:44:35.210Z,10.18
2018-01-24T03:47:02.956Z,8.02
2018-01-24T03:49:30.603Z,9.95
2018-01-24T03:51:58.158Z,11.27
2018-01-24T03:54:25.710Z,8.98
2018-01-24T03:56:53.323Z,10.20
2018-01-24T03:59:20.864Z,10.15
2018-01-24T04:01:48.562Z,10.25
2018-01-24T04:04:16.119Z,10.10
2018-01-24T04:06:43.666Z,9.10
2018-01-24T04:09:11.226Z,10.02
2018-01-24T04:11:38.770Z,8.70
2018-01-24T04:14:06.551Z,8.77
2018-01-24T04:16:34.170Z,9.82
2018-01-24T04:19:01.772Z,9.15
2018-01-24T04:21:29.330Z,8.73
2018-01-24T04:23:56.878Z,8.52
2018-01-24T04:26:24.474Z,7.55
2018-01-24T04:28:52.026Z,10.32
2018-01-24T04:31:19.683Z,11.10
2018-01-24T04:33:47.399Z,10.20
2018-01-24T04:36:15.117Z,9.32
2018-01-24T04:38:42.774Z,9.25
2018-01-24T04:41:10.550Z,9.50
2018-01-24T04:43:38.107Z,14.57
2018-01-24T04:46:05.661Z,14.30
2018-01-24T04:48:33.211Z,12.60
2018-01-24T04:51:00.836Z,9.40
2018-01-24T04:53:28.604Z,9.27
2018-01-24T04:55:56.320Z,11.45
2018-01-24T04:58:23.921Z,12.95
2018-01-24T05:00:51.506Z,10.45
2018-01-24T05:03:19.308Z,9.40
2018-01-24T05:05:46.850Z,8.68
2018-01-24T05:08:14.441Z,8.63
2018-01-24T05:10:42.022Z,9.20
2018-01-24T05:13:09.786Z,8.65
2018-01-24T05:15:37.425Z,8.82
2018-01-24T05:18:04.974Z,11.15
2018-01-24T05:20:36.346Z,16.17
2018-01-24T05:23:04.076Z,11.00
2018-01-24T05:25:31.618Z,11.93
2018-01-24T05:27:59.214Z,10.90
2018-01-24T05:30:26.922Z,17.30
2018-01-24T05:32:54.474Z,13.73
2018-01-24T05:35:22.050Z,15.80
2018-01-24T05:37:49.602Z,12.63
2018-01-24T05:40:17.322Z,11.52
2018-01-24T05:42:44.870Z,13.18
2018-01-24T05:45:12.410Z,11.10
2018-01-24T05:47:40.042Z,8.07
2018-01-24T05:50:07.596Z,12.48
2018-01-24T05:52:35.381Z,10.38
2018-01-24T05:55:02.929Z,10.27
2018-01-24T05:57:31.418Z,10.73
2018-01-24T05:59:59.133Z,7.65
2018-01-24T06:02:26.686Z,9.15
2018-01-24T06:04:54.286Z,15.68
2018-01-24T06:07:21.834Z,16.70
2018-01-24T06:09:49.576Z,13.35
2018-01-24T06:12:17.226Z,17.15
2018-01-24T06:14:44.941Z,12.15
2018-01-24T06:17:12.725Z,12.20
2018-01-24T06:19:40.387Z,18.77
2018-01-24T06:22:07.942Z,22.30
2018-01-24T06:24:35.506Z,45.50
2018-01-24T06:27:03.135Z,44.90
2018-01-24T06:29:31.052Z,20.83
2018-01-24T06:31:58.868Z,20.62
2018-01-24T06:34:26.691Z,14.20
2018-01-24T06:36:54.262Z,19.37
2018-01-24T06:39:21.818Z,26.02
2018-01-24T06:41:49.414Z,23.70
2018-01-24T06:44:17.095Z,20.90
2018-01-24T06:46:44.779Z,17.15
2018-01-24T06:49:12.342Z,25.67
2018-01-24T06:51:39.901Z,12.40
2018-01-24T06:54:07.729Z,10.75
2018-01-24T06:56:35.274Z,20.95
2018-01-24T06:59:02.851Z,12.70
2018-01-24T07:01:30.415Z,11.98
2018-01-24T07:03:58.100Z,12.35
2018-01-24T07:06:25.694Z,12.13
2018-01-24T07:08:53.436Z,13.48
2018-01-24T07:11:21.155Z,13.55
2018-01-24T07:14:00.377Z,11.75
2018-01-24T07:16:27.929Z,10.27
2018-01-24T07:18:55.751Z,10.90
2018-01-24T07:21:23.304Z,11.77
2018-01-24T07:23:50.890Z,13.52
2018-01-24T07:26:18.690Z,16.85
2018-01-24T07:28:46.722Z,13.35
2018-01-24T07:31:14.476Z,9.90
2018-01-24T07:33:42.148Z,8.30
2018-01-24T07:36:09.734Z,8.25
2018-01-24T07:38:37.390Z,8.02
2018-01-24T07:41:05.112Z,9.23
2018-01-24T07:43:32.731Z,7.50
2018-01-24T07:46:00.282Z,30.12
2018-01-24T07:48:27.956Z,8.80
2018-01-24T07:50:55.538Z,7.55
2018-01-24T07:53:23.092Z,11.93
2018-01-24T07:55:50.650Z,7.45
2018-01-24T07:58:18.194Z,8.00
2018-01-24T08:00:45.782Z,8.80
2018-01-24T08:03:13.379Z,11.25
2018-01-24T08:05:41.053Z,9.82
2018-01-24T08:08:08.629Z,12.25
2018-01-24T08:10:36.327Z,9.98
2018-01-24T08:13:04.046Z,8.38
2018-01-24T08:15:31.667Z,9.05
2018-01-24T08:17:59.217Z,7.35
2018-01-24T08:20:26.778Z,7.72
2018-01-24T08:22:54.326Z,8.55
2018-01-24T08:25:22.002Z,9.97
2018-01-24T08:27:49.670Z,11.68
2018-01-24T08:30:17.468Z,9.70
2018-01-24T08:32:45.086Z,10.80
2018-01-24T08:35:12.629Z,10.97
2018-01-24T08:37:40.873Z,11.47
2018-01-24T08:40:08.963Z,13.80
2018-01-24T08:42:36.503Z,13.10
2018-01-24T08:45:04.094Z,14.40
2018-01-24T08:47:31.629Z,14.17
2018-01-24T08:49:59.415Z,13.87
2018-01-24T08:52:27.108Z,13.87
2018-01-24T08:54:55.069Z,14.57
2018-01-24T08:57:22.771Z,13.97
2018-01-24T08:59:50.304Z,14.23
2018-01-24T09:02:17.994Z,14.60
2018-01-24T09:04:45.550Z,14.50
2018-01-24T09:07:13.133Z,16.57
2018-01-24T09:09:40.716Z,38.23
2018-01-24T09:12:08.277Z,17.60
2018-01-24T09:14:36.194Z,18.00
2018-01-24T09:17:03.733Z,21.13
2018-01-24T09:19:31.265Z,18.17
2018-01-24T09:21:58.816Z,16.53
2018-01-24T09:24:26.378Z,17.57
2018-01-24T09:26:53.954Z,15.63
2018-01-24T09:29:21.582Z,17.63
2018-01-24T09:31:49.115Z,17.83
2018-01-24T09:34:17.845Z,15.37
2018-01-24T09:36:45.522Z,14.60
2018-01-24T09:39:13.103Z,14.30
2018-01-24T09:41:40.795Z,14.33
2018-01-24T09:44:08.711Z,14.67
2018-01-24T09:46:36.406Z,16.07
2018-01-24T09:49:03.974Z,13.23
2018-01-24T09:51:31.566Z,13.27
2018-01-24T09:53:59.283Z,11.70
2018-01-24T09:56:26.902Z,9.57
2018-01-24T09:58:54.518Z,10.37
2018-01-24T10:01:22.232Z,12.83
2018-01-24T10:03:49.810Z,14.23
2018-01-24T10:06:17.354Z,9.23
2018-01-24T10:08:44.901Z,9.97
2018-01-24T10:11:12.441Z,11.57
2018-01-24T10:13:39.989Z,13.73
2018-01-24T10:16:07.743Z,12.70
2018-01-24T10:18:35.278Z,11.23
2018-01-24T10:21:02.870Z,13.67
2018-01-24T10:23:30.503Z,10.13
2018-01-24T10:25:58.319Z,11.63
2018-01-24T10:28:25.898Z,9.27
2018-01-24T10:30:53.608Z,12.00
2018-01-24T10:33:21.369Z,9.00
2018-01-24T10:35:49.087Z,7.73
2018-01-24T10:38:16.614Z,7.47
2018-01-24T10:40:44.212Z,8.40
2018-01-24T10:43:11.742Z,8.90
2018-01-24T10:45:39.274Z,6.17
2018-01-24T10:48:06.823Z,7.50
2018-01-24T10:50:34.385Z,6.53
2018-01-24T10:53:01.985Z,7.40
2018-01-24T10:55:29.519Z,6.97
2018-01-24T10:57:57.058Z,45.93
2018-01-24T11:00:24.652Z,9.17
2018-01-24T11:02:52.280Z,6.97
2018-01-24T11:05:20.101Z,6.40
2018-01-24T11:07:47.817Z,29.13
2018-01-24T11:10:15.375Z,55.20
2018-01-24T11:12:43.153Z,8.50
2018-01-24T11:15:10.727Z,14.73
2018-01-24T11:17:38.491Z,9.20
2018-01-24T11:20:06.105Z,11.10
2018-01-24T11:22:33.827Z,9.17
2018-01-24T11:25:01.517Z,9.67
2018-01-24T11:27:29.162Z,11.73
2018-01-24T11:29:56.878Z,9.60
2018-01-24T11:32:24.411Z,9.37
2018-01-24T11:34:51.999Z,10.07
2018-01-24T11:37:19.841Z,10.27
2018-01-24T11:39:47.393Z,8.90
2018-01-24T11:42:15.170Z,9.20
2018-01-24T11:44:42.697Z,6.43
2018-01-24T11:47:10.404Z,7.03
2018-01-24T11:49:37.950Z,7.50
2018-01-24T11:52:05.532Z,7.10
2018-01-24T11:54:33.125Z,23.73
2018-01-24T11:57:00.666Z,12.97
2018-01-24T11:59:28.225Z,13.73
2018-01-24T12:01:55.778Z,8.40
2018-01-24T12:04:23.326Z,11.47
2018-01-24T12:06:50.906Z,19.50
2018-01-24T12:09:18.458Z,11.83
2018-01-24T12:11:46.003Z,7.37
2018-01-24T12:14:13.558Z,6.97
2018-01-24T12:16:41.106Z,9.40
2018-01-24T12:19:08.675Z,8.80
2018-01-24T12:21:36.213Z,7.23
2018-01-24T12:24:03.762Z,6.30
2018-01-24T12:26:31.322Z,7.10
2018-01-24T12:28:58.882Z,7.17
2018-01-24T12:31:26.450Z,8.20
2018-01-24T12:33:53.980Z,8.23
2018-01-24T12:36:21.510Z,6.33
2018-01-24T12:38:49.071Z,8.30
2018-01-24T12:41:16.640Z,13.90
2018-01-24T12:43:44.229Z,11.17
2018-01-24T12:46:11.778Z,10.57
2018-01-24T12:48:39.320Z,7.77
2018-01-24T12:51:06.899Z,8.67
2018-01-24T12:53:34.473Z,6.53
2018-01-24T12:56:02.049Z,6.40
2018-01-24T12:58:29.608Z,7.70
2018-01-24T13:00:57.166Z,17.83
2018-01-24T13:03:24.723Z,6.87
2018-01-24T13:05:52.259Z,7.40
2018-01-24T13:08:19.826Z,7.50
2018-01-24T13:10:47.357Z,6.93
2018-01-24T13:13:14.940Z,12.27
2018-01-24T13:15:42.471Z,9.50
2018-01-24T13:18:10.030Z,12.03
2018-01-24T13:20:37.615Z,13.73
2018-01-24T13:23:05.150Z,7.63
2018-01-24T13:25:32.702Z,13.17
2018-01-24T13:28:00.250Z,6.23
2018-01-24T13:30:27.794Z,8.60
2018-01-24T13:32:55.391Z,7.57
2018-01-24T13:35:22.969Z,62.97
2018-01-24T13:37:50.502Z,9.00
2018-01-24T13:40:18.054Z,12.43
2018-01-24T13:42:45.622Z,7.87
2018-01-24T13:45:13.241Z,10.40
2018-01-24T13:47:40.775Z,36.70
2018-01-24T13:50:08.374Z,19.97
2018-01-24T13:52:35.938Z,10.00
2018-01-24T13:55:03.514Z,6.60
2018-01-24T13:57:31.105Z,7.10
2018-01-24T13:59:58.670Z,10.50
2018-01-24T14:02:26.198Z,7.30
2018-01-24T14:04:53.742Z,10.57
2018-01-24T14:07:21.285Z,7.93
2018-01-24T14:09:49.046Z,6.10
2018-01-24T14:12:16.577Z,7.13
2018-01-24T14:14:44.114Z,8.80
2018-01-24T14:17:11.650Z,6.73
2018-01-24T14:19:39.212Z,9.60
2018-01-24T14:22:06.786Z,8.33
2018-01-24T14:24:34.425Z,6.80
2018-01-24T14:27:01.993Z,6.43
2018-01-24T14:29:29.543Z,8.33
2018-01-24T14:31:57.178Z,7.60
2018-01-24T14:34:24.747Z,9.87
2018-01-24T14:36:52.282Z,9.77
2018-01-24T14:39:19.834Z,11.20
2018-01-24T14:41:47.385Z,9.37
2018-01-24T14:44:14.915Z,9.87
2018-01-24T14:46:42.483Z,13.03
2018-01-24T14:49:10.099Z,13.63
2018-01-24T14:51:37.638Z,15.57
2018-01-24T14:54:05.194Z,17.07
2018-01-24T14:56:32.730Z,15.20
2018-01-24T14:59:00.322Z,11.10
2018-01-24T15:01:27.861Z,10.73
2018-01-24T15:03:55.403Z,12.10
2018-01-24T15:06:22.950Z,10.53
2018-01-24T15:08:50.486Z,14.93
2018-01-24T15:11:18.157Z,17.27
2018-01-24T15:13:45.695Z,18.50
2018-01-24T15:16:13.234Z,21.50
2018-01-24T15:18:40.798Z,17.77
2018-01-24T15:21:08.345Z,25.67
2018-01-24T15:23:35.966Z,24.45
2018-01-24T15:26:03.570Z,19.10
2018-01-24T15:28:31.165Z,20.30
2018-01-24T15:30:58.718Z,27.15
2018-01-24T15:33:26.332Z,24.50
2018-01-24T15:35:53.938Z,17.35
2018-01-24T15:38:21.527Z,11.75
2018-01-24T15:40:49.138Z,11.18
2018-01-24T15:43:16.923Z,13.48
2018-01-24T15:45:44.466Z,10.60
2018-01-24T15:48:12.086Z,15.50
2018-01-24T15:50:39.715Z,11.20
2018-01-24T15:53:07.372Z,15.05
2018-01-24T15:55:34.925Z,10.80
2018-01-24T15:58:02.500Z,15.30
2018-01-24T16:00:30.098Z,13.43
2018-01-24T16:02:57.684Z,15.38
2018-01-24T16:05:25.265Z,19.02
2018-01-24T16:07:52.827Z,20.62
2018-01-24T16:10:20.382Z,42.67
2018-01-24T16:12:48.110Z,72.57
2018-01-24T16:15:15.657Z,79.15
2018-01-24T16:17:43.337Z,142.20
2018-01-24T16:20:11.058Z,56.30
2018-01-24T16:22:38.614Z,39.97
2018-01-24T16:25:06.215Z,40.63
2018-01-24T16:27:34.017Z,42.33
2018-01-24T16:30:01.613Z,33.00
2018-01-24T16:32:29.354Z,54.75
2018-01-24T16:34:56.907Z,29.90
2018-01-24T16:37:24.693Z,35.25
2018-01-24T16:39:52.266Z,19.85
2018-01-24T16:42:19.955Z,17.23
2018-01-24T16:44:47.743Z,15.63
2018-01-24T16:47:15.302Z,18.65
2018-01-24T16:49:43.603Z,14.75
2018-01-24T16:52:11.296Z,22.62
2018-01-24T16:54:38.850Z,14.05
2018-01-24T16:57:06.425Z,18.83
2018-01-24T16:59:34.156Z,28.65
2018-01-24T17:02:01.870Z,20.98
2018-01-24T17:04:29.422Z,52.72
2018-01-24T17:06:56.977Z,35.53
2018-01-24T17:09:24.526Z,32.75
2018-01-24T17:11:52.341Z,30.27
2018-01-24T17:14:19.938Z,62.65
2018-01-24T17:16:47.506Z,97.93
2018-01-24T17:19:15.058Z,22.02
2018-01-24T17:21:42.618Z,28.45
2018-01-24T17:24:10.332Z,24.98
2018-01-24T17:26:38.077Z,36.40
2018-01-24T17:29:05.629Z,37.15
2018-01-24T17:31:33.178Z,33.22
2018-01-24T17:34:00.793Z,34.28
2018-01-24T17:36:28.523Z,28.27
2018-01-24T17:38:56.118Z,99.60
2018-01-24T17:41:23.671Z,56.80
2018-01-24T17:43:51.233Z,50.38
2018-01-24T17:46:18.854Z,46.78
2018-01-24T17:48:46.408Z,58.28
2018-01-24T17:51:14.226Z,60.63
2018-01-24T17:53:41.944Z,87.75
2018-01-24T17:56:09.502Z,77.40
2018-01-24T17:58:37.057Z,58.25
2018-01-24T18:01:04.598Z,46.83
2018-01-24T18:03:32.322Z,39.13
2018-01-24T18:05:59.866Z,35.97
2018-01-24T18:08:27.650Z,44.92
2018-01-24T18:10:55.205Z,44.25
2018-01-24T18:13:22.806Z,38.45
2018-01-24T18:15:51.508Z,35.30
2018-01-24T18:18:19.106Z,44.95
2018-01-24T18:20:46.742Z,46.92
2018-01-24T18:23:14.367Z,36.63
2018-01-24T18:25:42.080Z,25.42
2018-01-24T18:28:09.670Z,31.00
2018-01-24T18:30:37.274Z,35.38
2018-01-24T18:33:04.826Z,43.20
2018-01-24T18:35:32.385Z,51.35
2018-01-24T18:37:59.955Z,62.90
2018-01-24T18:40:27.557Z,60.72
2018-01-24T18:42:55.122Z,43.90
2018-01-24T18:45:22.815Z,34.22
2018-01-24T18:47:50.543Z,38.38
2018-01-24T18:50:18.510Z,36.05
2018-01-24T18:52:46.848Z,29.52
2018-01-24T18:55:14.429Z,39.30
2018-01-24T18:57:41.983Z,49.67
2018-01-24T19:00:09.545Z,36.50
2018-01-24T19:02:37.250Z,36.53
2018-01-24T19:05:04.988Z,40.03
2018-01-24T19:07:32.564Z,51.80
2018-01-24T19:10:00.158Z,56.15
2018-01-24T19:12:27.731Z,51.67
2018-01-24T19:14:55.293Z,83.50
2018-01-24T19:17:22.966Z,31.62
2018-01-24T19:19:50.513Z,26.45
2018-01-24T19:22:18.054Z,24.45
2018-01-24T19:24:45.642Z,28.40
2018-01-24T19:27:13.181Z,29.00
2018-01-24T19:29:40.779Z,30.83
2018-01-24T19:32:08.363Z,36.35
2018-01-24T19:34:36.186Z,33.90
2018-01-24T19:37:03.747Z,34.33
2018-01-24T19:39:31.418Z,43.92
2018-01-24T19:41:59.171Z,50.12
2018-01-24T19:44:26.732Z,42.85
2018-01-24T19:46:54.364Z,43.40
2018-01-24T19:49:22.031Z,37.30
2018-01-24T19:51:49.589Z,36.95
2018-01-24T19:54:17.214Z,51.63
2018-01-24T19:56:44.858Z,37.20
2018-01-24T19:59:12.401Z,32.38
2018-01-24T20:01:39.949Z,32.70
2018-01-24T20:04:07.498Z,29.65
2018-01-24T20:06:35.085Z,34.67
2018-01-24T20:09:02.647Z,33.17
2018-01-24T20:11:30.190Z,36.25
2018-01-24T20:13:57.738Z,36.10
2018-01-24T20:16:25.395Z,44.90
2018-01-24T20:18:53.011Z,44.20
2018-01-24T20:21:20.687Z,54.38
2018-01-24T20:23:48.278Z,49.97
2018-01-24T20:26:15.962Z,46.97
2018-01-24T20:28:43.503Z,27.90
2018-01-24T20:31:11.102Z,26.60
2018-01-24T20:33:38.650Z,28.58
2018-01-24T20:36:06.401Z,29.80
2018-01-24T20:38:33.953Z,27.05
2018-01-24T20:41:01.774Z,27.60
2018-01-24T20:43:29.379Z,24.23
2018-01-24T20:45:56.930Z,24.75
2018-01-24T20:48:24.479Z,22.90
2018-01-24T20:50:52.037Z,101.22
2018-01-24T20:53:19.577Z,42.90
2018-01-24T20:55:47.170Z,40.33
2018-01-24T20:58:14.710Z,28.20
2018-01-24T21:00:42.283Z,28.10
2018-01-24T21:03:09.834Z,23.38
2018-01-24T21:05:37.538Z,22.67
2018-01-24T21:08:05.126Z,25.12
2018-01-24T21:10:32.852Z,27.55
2018-01-24T21:13:00.427Z,29.42
2018-01-24T21:15:28.109Z,31.15
2018-01-24T21:17:55.674Z,26.75
2018-01-24T21:20:23.284Z,34.78
2018-01-24T21:22:50.834Z,27.10
2018-01-24T21:25:18.378Z,39.10
2018-01-24T21:27:46.199Z,35.80
2018-01-24T21:30:21.669Z,37.20
2018-01-24T21:33:01.218Z,36.92
2018-01-24T21:35:40.562Z,35.85
2018-01-24T21:38:08.193Z,32.00
2018-01-24T21:40:35.753Z,34.55
2018-01-24T21:43:03.338Z,40.17
2018-01-24T21:45:30.927Z,38.95
2018-01-24T21:47:58.470Z,32.38
2018-01-24T21:50:26.169Z,25.77
2018-01-24T21:52:53.777Z,18.58
2018-01-24T21:55:21.318Z,18.20
2018-01-24T21:57:49.837Z,19.42
2018-01-24T22:00:17.393Z,19.58
2018-01-24T22:02:44.954Z,23.62
2018-01-24T22:05:12.514Z,22.80
2018-01-24T22:07:40.066Z,29.23
2018-01-24T22:10:07.611Z,36.40
2018-01-24T22:12:35.162Z,26.00
2018-01-24T22:15:02.721Z,25.33
2018-01-24T22:17:30.270Z,25.95
2018-01-24T22:19:57.830Z,23.25
2018-01-24T22:22:25.555Z,19.25
2018-01-24T22:24:53.114Z,19.45
2018-01-24T22:27:20.812Z,19.20
2018-01-24T22:29:48.366Z,19.35
2018-01-24T22:32:15.987Z,18.67
2018-01-24T22:34:43.526Z,18.35
2018-01-24T22:37:11.310Z,15.13
2018-01-24T22:39:38.889Z,15.15
2018-01-24T22:42:06.544Z,13.68
2018-01-24T22:44:34.130Z,14.20
2018-01-24T22:47:01.670Z,14.45
2018-01-24T22:49:29.210Z,12.35
2018-01-24T22:51:56.752Z,12.65
2018-01-24T22:54:24.304Z,14.15
2018-01-24T22:56:52.050Z,19.65
2018-01-24T22:59:19.626Z,11.98
2018-01-24T23:01:47.386Z,12.37
2018-01-24T23:04:15.201Z,12.77
2018-01-24T23:06:42.750Z,11.98
2018-01-24T23:09:10.285Z,14.10
2018-01-24T23:11:37.962Z,12.43
2018-01-24T23:14:05.619Z,10.02
2018-01-24T23:16:33.165Z,10.57
2018-01-24T23:19:00.761Z,10.80
2018-01-24T23:21:28.322Z,11.40
2018-01-24T23:23:55.934Z,8.85
2018-01-24T23:26:23.514Z,10.20
2018-01-24T23:28:51.206Z,9.75
2018-01-24T23:31:18.746Z,9.73
2018-01-24T23:33:46.281Z,11.52
2018-01-24T23:36:14.012Z,14.80
2018-01-24T23:38:41.558Z,12.07
2018-01-24T23:41:09.110Z,15.00
2018-01-24T23:43:36.661Z,13.90
2018-01-24T23:46:04.305Z,13.88
2018-01-24T23:48:32.023Z,17.27
2018-01-24T23:50:59.640Z,16.40
2018-01-24T23:53:27.174Z,12.93
2018-01-24T23:55:54.977Z,13.18
2018-01-24T23:58:22.529Z,14.43
